Aviation Digital Data Service (ADDS)

Output produced by TAFs form (1213 UTC 22 September 2014)
found at http://aviationweather.gov/adds/tafs/
 
KTCS 221129Z 2212/2312 VRB05KT P6SM VCSH BKN035 BKN060 
     TEMPO 2213/2217 VRB20G30KT 3SM TSRA BKN020CB OVC050 
     FM221800 13012KT P6SM VCTS BKN040CB BKN080 BKN200 
     FM230000 13010KT P6SM VCTS BKN040CB BKN100 BKN200 
     TEMPO 2300/2304 VRB15G25KT 3SM TSRA BKN030CB OVC100